createdAt,value
2023-03-21T00:02:12.547Z,10.30
2023-03-21T00:04:50.982Z,11.40
2023-03-21T00:07:19.736Z,10.95
2023-03-21T00:09:47.146Z,12.18
2023-03-21T00:12:16.830Z,12.50
2023-03-21T00:14:44.793Z,9.30
2023-03-21T00:17:12.499Z,9.38
2023-03-21T00:19:41.289Z,10.02
2023-03-21T00:22:09.293Z,9.32
2023-03-21T00:24:37.531Z,8.20
2023-03-21T00:27:34.293Z,10.85
2023-03-21T00:29:55.986Z,11.38
2023-03-21T00:32:23.534Z,9.55
2023-03-21T00:35:11.809Z,9.25
2023-03-21T00:37:39.514Z,9.63
2023-03-21T00:40:16.213Z,11.23
2023-03-21T00:42:51.124Z,9.23
2023-03-21T00:45:19.465Z,7.15
2023-03-21T00:47:47.091Z,10.43
2023-03-21T00:50:14.712Z,10.85
2023-03-21T00:52:42.610Z,10.43
2023-03-21T00:55:16.028Z,9.30
2023-03-21T00:57:47.509Z,11.05
2023-03-21T01:00:20.304Z,8.88
2023-03-21T01:03:14.204Z,8.88
2023-03-21T01:06:04.448Z,8.80
2023-03-21T01:08:48.503Z,9.73
2023-03-21T01:11:25.336Z,11.90
2023-03-21T01:13:57.799Z,9.10
2023-03-21T01:16:29.810Z,9.60
2023-03-21T01:18:57.605Z,11.90
2023-03-21T01:21:25.720Z,10.82
2023-03-21T01:23:53.245Z,9.75
2023-03-21T01:26:20.981Z,7.65
2023-03-21T01:28:48.718Z,8.90
2023-03-21T01:31:18.329Z,8.05
2023-03-21T01:33:46.255Z,7.38
2023-03-21T01:36:26.147Z,7.38
2023-03-21T01:38:58.507Z,8.43
2023-03-21T01:41:43.421Z,7.45
2023-03-21T01:44:20.765Z,7.18
2023-03-21T01:47:03.958Z,6.55
2023-03-21T01:49:51.077Z,8.55
2023-03-21T01:52:37.648Z,8.43
2023-03-21T01:55:14.105Z,7.95
2023-03-21T01:58:04.432Z,7.78
2023-03-21T02:00:38.140Z,8.60
2023-03-21T02:03:33.333Z,7.55
2023-03-21T02:06:31.924Z,8.65
2023-03-21T02:09:12.272Z,7.70
2023-03-21T02:11:39.780Z,9.45
2023-03-21T02:14:15.358Z,9.50
2023-03-21T02:17:17.474Z,8.65
2023-03-21T02:20:29.792Z,8.73
2023-03-21T02:23:35.013Z,8.30
2023-03-21T02:26:23.366Z,8.30
2023-03-21T02:29:00.864Z,9.07
2023-03-21T02:31:50.695Z,8.20
2023-03-21T02:34:54.556Z,7.10
2023-03-21T02:37:39.359Z,7.28
2023-03-21T02:40:15.448Z,7.47
2023-03-21T02:43:01.600Z,7.15
2023-03-21T02:45:43.016Z,8.15
2023-03-21T02:48:27.733Z,6.50
2023-03-21T02:53:31.853Z,5.72
2023-03-21T02:56:01.855Z,5.55
2023-03-21T02:58:32.798Z,7.25
2023-03-21T03:01:01.487Z,6.88
2023-03-21T03:03:35.207Z,6.50
2023-03-21T03:06:29.587Z,8.10
2023-03-21T03:09:39.865Z,7.20
2023-03-21T03:12:31.031Z,6.00
2023-03-21T03:15:11.552Z,5.32
2023-03-21T03:18:03.939Z,5.68
2023-03-21T03:20:52.345Z,5.47
2023-03-21T03:23:26.075Z,5.50
2023-03-21T03:26:12.588Z,5.00
2023-03-21T03:28:46.770Z,4.60
2023-03-21T03:31:46.285Z,5.43
2023-03-21T03:34:20.675Z,4.28
2023-03-21T03:36:56.466Z,4.10
2023-03-21T03:39:33.734Z,3.38
2023-03-21T03:42:34.838Z,3.72
2023-03-21T03:45:12.195Z,3.20
2023-03-21T03:47:57.466Z,3.60
2023-03-21T03:50:49.776Z,2.80
2023-03-21T03:53:23.478Z,3.00
2023-03-21T03:55:55.883Z,2.10
2023-03-21T03:58:36.153Z,2.10
2023-03-21T04:01:11.046Z,2.30
2023-03-21T04:03:48.961Z,2.10
2023-03-21T04:06:19.364Z,1.63
2023-03-21T04:08:48.652Z,2.72
2023-03-21T04:11:16.361Z,2.40
2023-03-21T04:13:48.396Z,2.75
2023-03-21T04:16:23.379Z,2.65
2023-03-21T04:18:52.494Z,3.47
2023-03-21T04:21:21.632Z,3.67
2023-03-21T04:23:49.178Z,4.40
2023-03-21T04:26:17.582Z,3.45
2023-03-21T04:29:04.200Z,3.10
2023-03-21T04:31:51.977Z,3.55
2023-03-21T04:34:24.068Z,4.00
2023-03-21T04:36:54.121Z,4.07
2023-03-21T04:39:22.098Z,5.60
2023-03-21T04:41:51.085Z,5.68
2023-03-21T04:44:19.107Z,4.88
2023-03-21T04:46:47.324Z,6.05
2023-03-21T04:49:15.426Z,7.15
2023-03-21T04:51:45.348Z,5.70
2023-03-21T04:56:43.008Z,6.68
2023-03-21T04:59:14.694Z,5.95
2023-03-21T05:01:43.832Z,6.28
2023-03-21T05:04:13.756Z,5.72
2023-03-21T05:06:45.274Z,8.50
2023-03-21T05:09:13.652Z,5.85
2023-03-21T05:11:42.333Z,7.93
2023-03-21T05:14:20.372Z,6.82
2023-03-21T05:16:53.180Z,6.25
2023-03-21T05:19:24.973Z,6.50
2023-03-21T05:21:53.156Z,5.32
2023-03-21T05:24:23.634Z,6.63
2023-03-21T05:26:52.648Z,6.78
2023-03-21T05:29:23.655Z,6.53
2023-03-21T05:32:00.819Z,7.80
2023-03-21T05:34:29.011Z,5.85
2023-03-21T05:36:56.768Z,6.60
2023-03-21T05:39:27.201Z,5.78
2023-03-21T05:42:09.984Z,7.38
2023-03-21T05:44:40.414Z,7.75
2023-03-21T05:47:09.922Z,8.45
2023-03-21T05:49:42.482Z,7.35
2023-03-21T05:52:10.257Z,7.63
2023-03-21T05:54:37.713Z,7.53
2023-03-21T05:57:06.369Z,7.63
2023-03-21T06:00:03.284Z,7.90
2023-03-21T06:02:43.074Z,6.43
2023-03-21T06:05:28.525Z,7.53
2023-03-21T06:07:56.327Z,5.93
2023-03-21T06:10:23.829Z,7.13
2023-03-21T06:12:51.655Z,6.30
2023-03-21T06:15:31.033Z,5.88
2023-03-21T06:18:35.826Z,6.57
2023-03-21T06:21:19.723Z,5.25
2023-03-21T06:23:51.733Z,6.57
2023-03-21T06:26:22.904Z,5.00
2023-03-21T06:28:52.798Z,5.15
2023-03-21T06:31:25.314Z,6.35
2023-03-21T06:33:54.817Z,5.55
2023-03-21T06:36:22.270Z,4.90
2023-03-21T06:38:50.133Z,4.15
2023-03-21T06:41:18.580Z,5.65
2023-03-21T06:43:56.287Z,6.43
2023-03-21T06:46:23.949Z,5.55
2023-03-21T06:48:51.635Z,5.40
2023-03-21T06:51:19.264Z,6.22
2023-03-21T06:54:14.573Z,4.55
2023-03-21T06:56:48.475Z,4.82
2023-03-21T06:59:23.103Z,4.97
2023-03-21T07:01:55.523Z,4.35
2023-03-21T07:04:24.568Z,4.00
2023-03-21T07:06:52.684Z,3.63
2023-03-21T07:09:24.672Z,4.63
2023-03-21T07:11:54.725Z,3.80
2023-03-21T07:14:26.518Z,4.60
2023-03-21T07:16:54.607Z,3.80
2023-03-21T07:19:22.490Z,3.15
2023-03-21T07:21:50.084Z,4.10
2023-03-21T07:24:17.490Z,4.32
2023-03-21T07:26:44.988Z,3.70
2023-03-21T07:29:12.449Z,3.13
2023-03-21T07:31:40.140Z,3.33
2023-03-21T07:34:07.704Z,2.90
2023-03-21T07:36:36.970Z,4.32
2023-03-21T07:39:04.754Z,3.40
2023-03-21T07:41:32.250Z,2.67
2023-03-21T07:44:11.765Z,3.05
2023-03-21T07:46:39.228Z,2.47
2023-03-21T07:49:06.849Z,2.67
2023-03-21T07:51:35.908Z,3.10
2023-03-21T07:54:03.550Z,3.42
2023-03-21T07:56:31.016Z,2.70
2023-03-21T07:58:59.483Z,2.72
2023-03-21T08:01:27.121Z,3.20
2023-03-21T08:03:54.629Z,2.92
2023-03-21T08:06:22.540Z,2.92
2023-03-21T08:08:50.519Z,2.80
2023-03-21T08:11:18.780Z,2.38
2023-03-21T08:13:46.347Z,1.92
2023-03-21T08:16:13.852Z,2.30
2023-03-21T08:18:42.786Z,2.20
2023-03-21T08:21:10.700Z,1.67
2023-03-21T08:23:38.156Z,2.05
2023-03-21T08:26:05.879Z,2.15
2023-03-21T08:28:33.678Z,2.35
2023-03-21T08:31:01.332Z,1.90
2023-03-21T08:33:28.762Z,1.92
2023-03-21T08:36:02.548Z,2.00
2023-03-21T08:38:31.609Z,1.73
2023-03-21T08:41:00.557Z,1.90
2023-03-21T08:43:29.473Z,1.83
2023-03-21T08:45:57.243Z,1.60
2023-03-21T08:48:24.821Z,1.65
2023-03-21T08:50:52.372Z,1.85
2023-03-21T08:53:19.852Z,1.27
2023-03-21T08:55:49.116Z,1.17
2023-03-21T08:58:17.650Z,1.33
2023-03-21T09:00:45.113Z,1.10
2023-03-21T09:03:12.612Z,1.40
2023-03-21T09:05:40.856Z,1.15
2023-03-21T09:08:08.578Z,0.80
2023-03-21T09:10:35.977Z,1.20
2023-03-21T09:13:03.488Z,1.00
2023-03-21T09:15:31.657Z,0.95
2023-03-21T09:18:13.108Z,1.15
2023-03-21T09:20:43.085Z,1.30
2023-03-21T09:23:12.270Z,1.00
2023-03-21T09:25:40.933Z,1.33
2023-03-21T09:28:08.954Z,1.15
2023-03-21T09:30:37.142Z,0.85
2023-03-21T09:33:09.924Z,0.82
2023-03-21T09:35:37.664Z,0.85
2023-03-21T09:38:06.012Z,1.02
2023-03-21T09:40:55.196Z,1.35
2023-03-21T09:43:28.886Z,0.90
2023-03-21T09:46:12.266Z,1.00
2023-03-21T09:48:57.851Z,1.30
2023-03-21T09:51:41.282Z,0.70
2023-03-21T09:54:40.626Z,0.80
2023-03-21T09:57:34.357Z,0.95
2023-03-21T10:00:16.231Z,1.02
2023-03-21T10:02:48.080Z,1.00
2023-03-21T10:05:24.437Z,0.90
2023-03-21T10:08:07.518Z,0.80
2023-03-21T10:10:53.536Z,0.90
2023-03-21T10:13:25.606Z,0.85
2023-03-21T10:16:02.325Z,0.80
2023-03-21T10:18:31.430Z,0.95
2023-03-21T10:20:59.311Z,0.80
2023-03-21T10:23:29.513Z,1.20
2023-03-21T10:26:06.085Z,1.23
2023-03-21T10:28:52.066Z,0.95
2023-03-21T10:31:26.144Z,0.93
2023-03-21T10:33:56.173Z,0.90
2023-03-21T10:36:30.159Z,0.70
2023-03-21T10:38:57.697Z,0.63
2023-03-21T10:41:25.142Z,0.63
2023-03-21T10:44:26.624Z,0.88
2023-03-21T10:46:59.696Z,0.63
2023-03-21T10:49:35.886Z,0.50
2023-03-21T10:52:12.351Z,0.70
2023-03-21T10:54:40.585Z,0.90
2023-03-21T10:57:19.947Z,0.90
2023-03-21T10:59:57.696Z,0.85
2023-03-21T11:02:30.999Z,0.60
2023-03-21T11:05:06.238Z,0.77
2023-03-21T11:07:35.677Z,1.10
2023-03-21T11:10:23.022Z,0.82
2023-03-21T11:12:58.230Z,0.65
2023-03-21T11:15:40.726Z,1.63
2023-03-21T11:18:18.781Z,1.40
2023-03-21T11:20:59.019Z,1.45
2023-03-21T11:23:29.789Z,1.33
2023-03-21T11:26:00.547Z,1.40
2023-03-21T11:28:36.541Z,1.42
2023-03-21T11:33:57.115Z,1.40
2023-03-21T11:36:33.769Z,1.50
2023-03-21T11:39:37.247Z,1.92
2023-03-21T11:42:04.862Z,2.40
2023-03-21T11:44:32.297Z,1.85
2023-03-21T11:47:00.871Z,2.03
2023-03-21T11:49:28.919Z,1.55
2023-03-21T11:52:20.991Z,1.30
2023-03-21T11:55:03.590Z,1.38
2023-03-21T11:58:14.667Z,1.30
2023-03-21T12:00:57.331Z,1.02
2023-03-21T12:03:48.605Z,0.90
2023-03-21T12:06:49.005Z,0.85
2023-03-21T12:10:08.866Z,0.90
2023-03-21T12:13:13.527Z,0.88
2023-03-21T12:15:57.534Z,1.00
2023-03-21T12:19:10.012Z,0.90
2023-03-21T12:21:50.913Z,0.95
2023-03-21T12:24:26.921Z,0.85
2023-03-21T12:27:18.271Z,0.90
2023-03-21T12:30:07.202Z,0.90
2023-03-21T12:32:51.807Z,1.00
2023-03-21T12:35:48.549Z,0.75
2023-03-21T12:38:28.134Z,0.95
2023-03-21T12:41:14.367Z,0.73
2023-03-21T12:44:05.497Z,0.82
2023-03-21T12:46:33.484Z,1.13
2023-03-21T12:49:09.890Z,1.58
2023-03-21T12:51:41.766Z,1.20
2023-03-21T12:54:18.884Z,1.00
2023-03-21T12:57:04.560Z,0.90
2023-03-21T12:59:38.579Z,0.80
2023-03-21T13:02:28.944Z,0.75
2023-03-21T13:05:17.291Z,0.70
2023-03-21T13:07:51.766Z,0.90
2023-03-21T13:10:21.760Z,1.20
2023-03-21T13:12:58.497Z,1.20
2023-03-21T13:15:32.209Z,1.45
2023-03-21T13:18:05.026Z,1.33
2023-03-21T13:20:41.254Z,1.27
2023-03-21T13:23:09.427Z,1.50
2023-03-21T13:25:47.227Z,1.17
2023-03-21T13:28:29.544Z,1.13
2023-03-21T13:31:16.056Z,1.45
2023-03-21T13:36:37.876Z,1.48
2023-03-21T13:39:06.980Z,1.50
2023-03-21T13:41:40.740Z,1.77
2023-03-21T13:44:33.729Z,1.65
2023-03-21T13:47:04.115Z,1.30
2023-03-21T13:49:36.427Z,1.48
2023-03-21T13:52:28.198Z,1.40
2023-03-21T13:54:57.293Z,1.45
2023-03-21T13:57:27.532Z,1.10
2023-03-21T14:00:17.629Z,0.90
2023-03-21T14:03:06.020Z,1.20
2023-03-21T14:05:35.424Z,1.45
2023-03-21T14:08:15.671Z,1.50
2023-03-21T14:10:52.146Z,1.17
2023-03-21T14:13:23.289Z,1.20
2023-03-21T14:16:06.661Z,1.20
2023-03-21T14:18:59.253Z,1.20
2023-03-21T14:21:32.136Z,1.52
2023-03-21T14:24:08.092Z,1.42
2023-03-21T14:26:40.342Z,1.25
2023-03-21T14:29:26.080Z,1.40
2023-03-21T14:31:56.483Z,1.35
2023-03-21T14:34:26.102Z,1.40
2023-03-21T14:37:00.594Z,1.65
2023-03-21T14:39:32.781Z,1.35
2023-03-21T14:42:08.817Z,1.35
2023-03-21T14:47:28.002Z,1.55
2023-03-21T14:49:57.422Z,1.52
2023-03-21T14:52:32.354Z,1.50
2023-03-21T14:55:01.768Z,1.20
2023-03-21T14:57:32.320Z,1.48
2023-03-21T15:00:12.728Z,1.75
2023-03-21T15:02:42.203Z,1.58
2023-03-21T15:05:31.609Z,1.45
2023-03-21T15:08:02.385Z,1.80
2023-03-21T15:10:32.187Z,1.40
2023-03-21T15:13:14.831Z,1.30
2023-03-21T15:15:43.201Z,1.70
2023-03-21T15:18:16.158Z,1.23
2023-03-21T15:20:46.812Z,1.02
2023-03-21T15:23:46.914Z,1.55
2023-03-21T15:26:17.025Z,1.35
2023-03-21T15:28:47.037Z,1.10
2023-03-21T15:31:20.535Z,0.98
2023-03-21T15:33:50.045Z,1.30
2023-03-21T15:36:24.201Z,1.10
2023-03-21T15:38:52.333Z,1.10
2023-03-21T15:41:19.792Z,1.25
2023-03-21T15:43:49.440Z,1.48
2023-03-21T15:46:31.839Z,1.10
2023-03-21T15:49:16.100Z,1.15
2023-03-21T15:51:48.506Z,1.35
2023-03-21T15:54:22.130Z,1.00
2023-03-21T15:56:52.451Z,0.75
2023-03-21T15:59:20.640Z,0.73
2023-03-21T16:01:49.785Z,0.93
2023-03-21T16:04:18.714Z,0.95
2023-03-21T16:07:02.251Z,1.00
2023-03-21T16:09:43.050Z,0.70
2023-03-21T16:12:13.208Z,0.93
2023-03-21T16:14:42.620Z,0.85
2023-03-21T16:17:28.169Z,1.48
2023-03-21T16:19:55.897Z,1.00
2023-03-21T16:22:23.406Z,0.88
2023-03-21T16:24:51.079Z,1.25
2023-03-21T16:27:20.376Z,1.08
2023-03-21T16:29:47.870Z,1.30
2023-03-21T16:32:17.307Z,1.20
2023-03-21T16:34:46.268Z,0.90
2023-03-21T16:37:17.339Z,1.00
2023-03-21T16:39:44.827Z,0.90
2023-03-21T16:42:13.080Z,1.10
2023-03-21T16:44:40.709Z,1.35
2023-03-21T16:47:34.646Z,1.20
2023-03-21T16:50:02.387Z,1.17
2023-03-21T16:52:29.895Z,1.60
2023-03-21T16:54:58.168Z,1.42
2023-03-21T16:57:29.805Z,1.60
2023-03-21T16:59:57.667Z,1.77
2023-03-21T17:02:26.789Z,1.73
2023-03-21T17:04:54.349Z,2.10
2023-03-21T17:07:21.969Z,1.40
2023-03-21T17:09:49.833Z,1.92
2023-03-21T17:12:17.828Z,1.58
2023-03-21T17:14:46.023Z,1.65
2023-03-21T17:17:15.903Z,1.75
2023-03-21T17:19:43.703Z,1.38
2023-03-21T17:22:13.394Z,2.70
2023-03-21T17:24:42.049Z,1.98
2023-03-21T17:27:14.580Z,2.03
2023-03-21T17:29:42.125Z,2.10
2023-03-21T17:32:09.632Z,1.85
2023-03-21T17:34:37.160Z,2.25
2023-03-21T17:37:04.595Z,1.50
2023-03-21T17:39:32.395Z,1.83
2023-03-21T17:41:59.835Z,3.45
2023-03-21T17:44:27.287Z,3.55
2023-03-21T17:46:57.296Z,3.80
2023-03-21T17:49:24.741Z,2.90
2023-03-21T17:51:52.331Z,2.72
2023-03-21T17:54:19.795Z,2.42
2023-03-21T17:56:47.356Z,2.00
2023-03-21T17:59:15.780Z,2.00
2023-03-21T18:01:43.506Z,1.65
2023-03-21T18:04:11.211Z,1.90
2023-03-21T18:06:39.046Z,2.10
2023-03-21T18:09:11.453Z,2.20
2023-03-21T18:11:40.398Z,2.20
2023-03-21T18:14:16.345Z,2.20
2023-03-21T18:16:45.874Z,2.60
2023-03-21T18:19:13.905Z,1.63
2023-03-21T18:21:44.827Z,1.58
2023-03-21T18:24:13.220Z,1.58
2023-03-21T18:26:41.168Z,1.40
2023-03-21T18:30:13.100Z,1.88
2023-03-21T18:32:06.810Z,1.80
2023-03-21T18:34:38.751Z,1.20
2023-03-21T18:37:08.577Z,1.70
2023-03-21T18:39:38.061Z,1.50
2023-03-21T18:42:05.921Z,1.80
2023-03-21T18:44:37.598Z,1.52
2023-03-21T18:47:08.904Z,1.60
2023-03-21T18:52:26.450Z,1.75
2023-03-21T18:54:54.496Z,1.30
2023-03-21T18:57:38.873Z,1.52
2023-03-21T19:00:12.851Z,1.50
2023-03-21T19:02:47.013Z,1.50
2023-03-21T19:05:17.703Z,1.80
2023-03-21T19:07:46.593Z,1.92
2023-03-21T19:10:20.178Z,1.65
2023-03-21T19:12:52.981Z,1.55
2023-03-21T19:15:22.141Z,1.63
2023-03-21T19:18:30.722Z,1.55
2023-03-21T19:20:44.201Z,2.20
2023-03-21T19:23:11.949Z,2.00
2023-03-21T19:25:39.517Z,1.73
2023-03-21T19:28:08.278Z,1.30
2023-03-21T19:30:36.020Z,1.35
2023-03-21T19:33:04.067Z,1.33
2023-03-21T19:35:32.193Z,1.75
2023-03-21T19:37:59.818Z,1.80
2023-03-21T19:40:27.303Z,1.52
2023-03-21T19:42:54.808Z,1.42
2023-03-21T19:45:22.215Z,1.70
2023-03-21T19:47:49.727Z,1.75
2023-03-21T19:53:04.804Z,1.80
2023-03-21T19:55:32.260Z,1.70
2023-03-21T19:57:59.728Z,1.95
2023-03-21T20:00:27.452Z,1.77
2023-03-21T20:02:55.020Z,1.25
2023-03-21T20:05:25.433Z,1.40
2023-03-21T20:07:55.419Z,1.92
2023-03-21T20:10:27.496Z,1.83
2023-03-21T20:12:56.166Z,2.33
2023-03-21T20:15:26.722Z,2.30
2023-03-21T20:17:56.433Z,2.35
2023-03-21T20:20:24.444Z,3.35
2023-03-21T20:23:06.953Z,3.53
2023-03-21T20:25:38.862Z,2.70
2023-03-21T20:28:15.640Z,2.25
2023-03-21T20:30:53.061Z,1.92
2023-03-21T20:33:20.647Z,2.20
2023-03-21T20:38:37.774Z,2.33
2023-03-21T20:41:06.596Z,2.30
2023-03-21T20:46:22.807Z,2.33
2023-03-21T20:48:50.693Z,2.28
2023-03-21T20:54:06.508Z,1.90
2023-03-21T20:56:34.779Z,1.65
2023-03-21T20:59:16.223Z,1.92
2023-03-21T21:01:48.470Z,1.88
2023-03-21T21:04:19.994Z,1.40
2023-03-21T21:06:48.483Z,1.25
2023-03-21T21:09:16.666Z,1.80
2023-03-21T21:14:31.636Z,1.83
2023-03-21T21:17:07.746Z,1.77
2023-03-21T21:19:46.107Z,1.92
2023-03-21T21:22:13.638Z,1.60
2023-03-21T21:24:41.143Z,2.08
2023-03-21T21:27:08.581Z,1.77
2023-03-21T21:29:36.796Z,2.03
2023-03-21T21:32:05.373Z,1.50
2023-03-21T21:34:32.865Z,2.10
2023-03-21T21:37:00.369Z,2.40
2023-03-21T21:39:27.853Z,2.00
2023-03-21T21:41:55.295Z,2.10
2023-03-21T21:44:22.812Z,3.08
2023-03-21T21:46:50.303Z,1.88
2023-03-21T21:49:17.781Z,2.33
2023-03-21T21:51:47.781Z,2.03
2023-03-21T21:54:18.294Z,2.50
2023-03-21T21:56:48.889Z,1.90
2023-03-21T21:59:16.549Z,1.73
2023-03-21T22:01:44.083Z,2.78
2023-03-21T22:04:14.364Z,2.50
2023-03-21T22:06:43.243Z,2.28
2023-03-21T22:09:11.232Z,1.45
2023-03-21T22:11:38.706Z,1.73
2023-03-21T22:14:06.269Z,2.00
2023-03-21T22:16:33.877Z,2.13
2023-03-21T22:19:01.390Z,2.40
2023-03-21T22:21:28.925Z,2.28
2023-03-21T22:23:56.538Z,2.10
2023-03-21T22:26:24.191Z,2.50
2023-03-21T22:28:51.633Z,2.47
2023-03-21T22:31:19.312Z,2.25
2023-03-21T22:33:48.712Z,2.83
2023-03-21T22:36:16.264Z,3.10
2023-03-21T22:38:44.018Z,3.13
2023-03-21T22:41:11.516Z,2.60
2023-03-21T22:43:38.925Z,3.03
2023-03-21T22:46:06.752Z,3.10
2023-03-21T22:48:34.828Z,3.50
2023-03-21T22:51:02.570Z,3.63
2023-03-21T22:53:30.330Z,2.90
2023-03-21T22:55:57.864Z,4.00
2023-03-21T22:58:25.323Z,4.72
2023-03-21T23:00:52.935Z,3.28
2023-03-21T23:03:20.835Z,4.10
2023-03-21T23:05:48.479Z,3.80
2023-03-21T23:08:16.103Z,4.20
2023-03-21T23:10:46.059Z,4.15
2023-03-21T23:13:13.577Z,4.25
2023-03-21T23:15:41.226Z,3.78
2023-03-21T23:18:08.874Z,3.83
2023-03-21T23:20:36.565Z,3.75
2023-03-21T23:23:04.026Z,4.30
2023-03-21T23:25:33.620Z,3.70
2023-03-21T23:28:02.030Z,4.05
2023-03-21T23:30:29.465Z,3.15
2023-03-21T23:32:57.008Z,4.25
2023-03-21T23:35:24.623Z,3.90
2023-03-21T23:37:52.636Z,3.00
2023-03-21T23:40:21.253Z,3.65
2023-03-21T23:42:48.805Z,3.35
2023-03-21T23:45:16.334Z,3.65
2023-03-21T23:47:43.965Z,2.88
2023-03-21T23:50:11.629Z,3.03
2023-03-21T23:52:41.633Z,3.15
2023-03-21T23:55:09.383Z,2.50
2023-03-21T23:57:38.291Z,2.72
